Time;durP1;ratioP1;P1;durP2;ratioP2;P2;SDS_P1;SDS_P2;PMS_P1;PMS_P2;Temp;Humidity;BMP_temperature;BMP_pressure;BME280_temperature;BME280_humidity;BME280_pressure;Samples;Min_cycle;Max_cycle;Signal;HPM_P1;HPM_P2
2021/06/25 00:02:03;;;;;;;0.40;0.30;;;;;;;24.01;72.09;99867.09;6191961;23;20122;-85
2021/06/25 00:04:29;;;;;;;0.68;0.40;;;;;;;23.94;72.09;99858.06;6220759;23;20040;-85
2021/06/25 00:06:54;;;;;;;1.05;0.57;;;;;;;23.91;72.32;99861.28;6170324;23;20024;-85
2021/06/25 00:09:20;;;;;;;0.82;0.50;;;;;;;24.00;71.94;99857.13;6221139;23;20016;-84
2021/06/25 00:11:46;;;;;;;0.82;0.50;;;;;;;24.01;71.47;99851.38;6195724;23;20071;-85
2021/06/25 00:14:12;;;;;;;1.35;0.50;;;;;;;24.05;71.71;99847.06;6193294;23;20075;-85
2021/06/25 00:16:39;;;;;;;0.65;0.40;;;;;;;24.01;72.23;99840.31;6193257;23;20028;-85
2021/06/25 00:19:05;;;;;;;0.90;0.30;;;;;;;24.04;71.12;99839.84;6196853;23;20016;-84
2021/06/25 00:21:31;;;;;;;0.70;0.50;;;;;;;24.05;71.95;99840.69;6219017;23;20020;-85
2021/06/25 00:23:57;;;;;;;0.60;0.40;;;;;;;24.04;72.39;99844.53;6192677;23;20140;-85
2021/06/25 00:26:22;;;;;;;0.65;0.50;;;;;;;24.00;72.03;99833.13;6168135;23;20026;-84
2021/06/25 00:28:48;;;;;;;1.42;0.60;;;;;;;24.01;72.13;99837.56;6220472;23;20066;-87
2021/06/25 00:31:14;;;;;;;0.93;0.40;;;;;;;24.03;72.39;99829.06;6221221;23;20034;-86
2021/06/25 00:33:40;;;;;;;1.63;0.60;;;;;;;23.98;73.16;99828.91;6221790;23;20095;-84
2021/06/25 00:36:07;;;;;;;1.45;0.60;;;;;;;23.95;73.61;99834.88;6195321;23;20039;-85
2021/06/25 00:38:33;;;;;;;1.58;0.80;;;;;;;23.87;73.40;99832.47;6172098;23;20020;-83
2021/06/25 00:40:59;;;;;;;0.65;0.50;;;;;;;23.74;73.57;99826.06;6220439;23;20142;-84
2021/06/25 00:43:25;;;;;;;1.23;0.50;;;;;;;23.74;73.17;99828.81;6194827;23;20083;-85
2021/06/25 00:45:51;;;;;;;0.80;0.50;;;;;;;23.78;72.77;99819.00;6219676;23;20021;-84
2021/06/25 00:48:17;;;;;;;1.58;0.50;;;;;;;23.86;72.22;99815.06;6221129;23;20048;-84
2021/06/25 00:50:43;;;;;;;0.95;0.50;;;;;;;23.92;72.67;99818.81;6221116;23;20092;-84
2021/06/25 00:53:09;;;;;;;0.52;0.50;;;;;;;23.91;72.64;99817.09;6193386;23;20080;-84
2021/06/25 00:55:42;;;;;;;0.52;0.50;;;;;;;23.83;73.33;99793.44;6225629;23;20025;-84
2021/06/25 00:58:11;;;;;;;0.85;0.60;;;;;;;23.74;74.14;99800.38;6163016;23;20020;-85
2021/06/25 01:00:37;;;;;;;0.75;0.60;;;;;;;23.63;73.97;99785.41;6238052;23;20119;-84
2021/06/25 01:03:03;;;;;;;0.80;0.40;;;;;;;23.51;73.89;99798.28;6237971;23;20013;-83
2021/06/25 01:05:29;;;;;;;0.50;0.32;;;;;;;23.42;74.61;99821.78;6238388;23;20008;-83
2021/06/25 01:07:55;;;;;;;0.73;0.52;;;;;;;23.44;74.46;99816.84;6211869;23;20009;-85
2021/06/25 01:10:21;;;;;;;1.17;0.47;;;;;;;23.52;74.02;99811.03;6187372;23;20020;-83
2021/06/25 01:12:47;;;;;;;0.43;0.35;;;;;;;23.38;75.02;99807.59;6211716;23;20011;-83
2021/06/25 01:15:13;;;;;;;0.47;0.47;;;;;;;23.46;74.35;99792.63;6236710;23;20084;-83
2021/06/25 01:17:43;;;;;;;0.60;0.40;;;;;;;23.53;73.96;99809.94;6211768;23;20005;-85
2021/06/25 01:20:23;;;;;;;0.77;0.50;;;;;;;23.55;73.93;99811.41;6238322;23;20004;-85
2021/06/25 01:22:49;;;;;;;0.50;0.45;;;;;;;23.48;74.26;99801.53;6238000;23;20013;-84
2021/06/25 01:25:17;;;;;;;1.95;0.30;;;;;;;23.49;73.99;99793.00;6212480;23;20008;-84
2021/06/25 01:27:44;;;;;;;0.52;0.40;;;;;;;23.59;72.68;99803.50;6231761;22;20016;-85
2021/06/25 01:30:17;;;;;;;0.55;0.40;;;;;;;23.64;73.06;99800.88;6230483;23;20054;-84
2021/06/25 01:32:44;;;;;;;0.40;0.40;;;;;;;23.49;73.13;99792.19;6230992;23;20160;-83
2021/06/25 01:35:11;;;;;;;0.40;0.30;;;;;;;23.34;73.34;99789.81;6230036;23;20016;-85
2021/06/25 01:37:38;;;;;;;0.60;0.38;;;;;;;23.41;72.59;99789.75;6228453;23;20021;-84
2021/06/25 01:40:06;;;;;;;1.08;0.43;;;;;;;23.59;71.95;99786.94;6205219;23;20016;-86
2021/06/25 01:42:35;;;;;;;0.50;0.30;;;;;;;23.68;72.82;99790.25;6229103;23;20035;-84
2021/06/25 01:45:04;;;;;;;0.43;0.40;;;;;;;23.48;72.09;99796.84;6205419;23;20024;-85
2021/06/25 01:47:30;;;;;;;0.28;0.20;;;;;;;23.49;71.34;99797.69;6229821;23;20086;-87
2021/06/25 01:49:56;;;;;;;0.45;0.30;;;;;;;23.64;71.53;99806.41;6228623;23;20016;-84
2021/06/25 01:52:22;;;;;;;0.50;0.30;;;;;;;23.68;71.23;99807.66;6227537;23;20090;-85
2021/06/25 01:54:48;;;;;;;0.35;0.30;;;;;;;23.46;72.46;99814.72;6230044;23;20021;-82
2021/06/25 01:57:15;;;;;;;0.40;0.40;;;;;;;23.49;72.07;99814.25;6227535;23;20023;-86
2021/06/25 01:59:41;;;;;;;0.30;0.30;;;;;;;23.66;70.58;99808.91;6201548;23;20016;-84
2021/06/25 02:02:08;;;;;;;0.30;0.30;;;;;;;23.79;70.13;99820.66;6223976;23;20020;-86
2021/06/25 02:04:34;;;;;;;0.55;0.45;;;;;;;23.88;70.18;99828.63;6224079;23;20115;-85
2021/06/25 02:07:00;;;;;;;0.38;0.28;;;;;;;23.94;70.18;99811.13;6220952;23;20013;-85
2021/06/25 02:09:26;;;;;;;0.28;0.28;;;;;;;23.86;69.63;99815.06;6223059;23;20025;-84
2021/06/25 02:11:52;;;;;;;0.50;0.30;;;;;;;23.93;69.84;99826.00;6222865;23;20013;-83
2021/06/25 02:14:19;;;;;;;0.38;0.38;;;;;;;24.05;69.37;99824.97;6223914;23;20095;-86
2021/06/25 02:16:46;;;;;;;0.47;0.30;;;;;;;24.19;69.34;99831.13;6224822;23;20024;-84
2021/06/25 02:19:12;;;;;;;0.40;0.40;;;;;;;24.24;69.43;99824.91;6173656;23;20021;-85
2021/06/25 02:21:38;;;;;;;0.50;0.32;;;;;;;24.32;69.16;99820.97;6222885;23;20104;-85
2021/06/25 02:24:04;;;;;;;0.50;0.40;;;;;;;24.28;69.25;99817.84;6222357;23;20025;-85
2021/06/25 02:26:30;;;;;;;0.52;0.30;;;;;;;24.36;69.37;99823.03;6225722;23;20028;-86
2021/06/25 02:28:56;;;;;;;1.02;0.30;;;;;;;24.39;68.71;99821.69;6226164;23;20103;-84
2021/06/25 02:31:22;;;;;;;0.65;0.30;;;;;;;24.42;68.32;99824.00;6221424;23;20063;-84
2021/06/25 02:33:48;;;;;;;0.40;0.30;;;;;;;24.50;67.91;99821.75;6218390;23;20020;-86
2021/06/25 02:36:14;;;;;;;1.65;0.30;;;;;;;24.61;67.01;99805.41;6220557;23;20534;-85
2021/06/25 02:38:40;;;;;;;0.30;0.30;;;;;;;24.74;67.07;99814.31;6223935;23;20036;-88
2021/06/25 02:41:06;;;;;;;0.40;0.30;;;;;;;24.83;66.87;99809.28;6223653;23;20021;-83
2021/06/25 02:43:32;;;;;;;0.28;0.25;;;;;;;25.00;67.20;99810.22;6221234;23;20079;-84
2021/06/25 02:45:58;;;;;;;0.63;0.30;;;;;;;25.12;67.85;99801.06;6224432;23;20349;-86
2021/06/25 02:48:24;;;;;;;0.63;0.30;;;;;;;25.17;67.64;99812.28;6222888;23;20024;-85
2021/06/25 02:50:50;;;;;;;0.57;0.35;;;;;;;25.19;66.56;99813.72;6221357;23;20017;-86
2021/06/25 02:53:16;;;;;;;0.75;0.43;;;;;;;25.30;67.23;99816.69;6224567;23;20023;-85
2021/06/25 02:55:52;;;;;;;1.15;0.35;;;;;;;25.38;65.40;99813.56;6224456;23;20012;-83
2021/06/25 02:58:21;;;;;;;0.77;0.30;;;;;;;25.47;65.24;99810.16;6225647;23;20024;-84
2021/06/25 03:00:49;;;;;;;0.75;0.30;;;;;;;25.59;65.39;99810.13;6224366;23;20012;-85
2021/06/25 03:03:15;;;;;;;0.70;0.38;;;;;;;25.69;65.00;99799.25;6220352;23;20397;-84
2021/06/25 03:05:42;;;;;;;0.93;0.45;;;;;;;25.83;64.65;99796.22;6220990;23;20020;-84
2021/06/25 03:08:08;;;;;;;1.95;0.60;;;;;;;26.01;63.85;99798.78;6218796;23;20036;-84
2021/06/25 03:10:34;;;;;;;0.90;0.30;;;;;;;26.14;63.21;99798.47;6219432;23;20370;-88
2021/06/25 03:13:01;;;;;;;0.38;0.35;;;;;;;26.32;61.67;99796.53;6217557;23;20028;-85
2021/06/25 03:15:26;;;;;;;0.57;0.40;;;;;;;26.49;61.88;99799.38;6194618;23;20158;-84
2021/06/25 03:17:52;;;;;;;0.73;0.40;;;;;;;26.69;60.86;99794.13;6222069;23;20044;-84
2021/06/25 03:20:18;;;;;;;0.50;0.30;;;;;;;26.85;61.00;99798.84;6219548;23;20372;-83
2021/06/25 03:22:44;;;;;;;0.40;0.30;;;;;;;27.00;59.86;99801.00;6222305;23;20020;-87
2021/06/25 03:25:10;;;;;;;0.50;0.30;;;;;;;27.11;59.14;99791.75;6216681;23;20022;-85
2021/06/25 03:27:37;;;;;;;0.73;0.40;;;;;;;27.24;59.27;99784.13;6219244;23;20063;-85
2021/06/25 03:30:05;;;;;;;0.43;0.40;;;;;;;27.47;58.50;99783.88;6195906;23;20057;-84
2021/06/25 03:32:31;;;;;;;0.60;0.38;;;;;;;27.68;57.18;99781.31;6218303;23;20020;-84
2021/06/25 03:34:57;;;;;;;0.43;0.40;;;;;;;27.86;56.85;99776.31;6221841;23;20032;-82
2021/06/25 03:37:23;;;;;;;0.30;0.30;;;;;;;27.96;56.95;99783.88;6224764;23;20035;-86
2021/06/25 03:39:49;;;;;;;0.40;0.30;;;;;;;28.18;55.48;99783.00;6228736;23;20027;-85
2021/06/25 03:42:16;;;;;;;0.50;0.30;;;;;;;28.40;55.76;99785.72;6228217;23;20390;-84
2021/06/25 03:44:42;;;;;;;0.95;0.50;;;;;;;28.64;53.81;99786.19;6221656;23;20195;-85
2021/06/25 03:47:08;;;;;;;0.43;0.35;;;;;;;28.63;54.42;99795.63;6219303;23;20023;-85
2021/06/25 03:49:34;;;;;;;1.08;0.40;;;;;;;28.79;51.91;99778.78;6221182;23;20020;-84
2021/06/25 03:52:01;;;;;;;0.85;0.30;;;;;;;28.91;51.24;99780.53;6198326;23;20032;-85
2021/06/25 03:54:27;;;;;;;0.20;0.20;;;;;;;29.14;49.29;99782.06;6198165;23;20029;-86
2021/06/25 03:56:53;;;;;;;0.50;0.50;;;;;;;29.34;49.54;99776.59;6223984;23;20020;-87
2021/06/25 03:59:20;;;;;;;0.50;0.40;;;;;;;29.59;49.56;99780.66;6150813;23;20031;-85
2021/06/25 04:01:47;;;;;;;0.40;0.40;;;;;;;29.75;49.47;99774.81;6226144;23;20134;-86
2021/06/25 04:04:13;;;;;;;0.95;0.40;;;;;;;29.96;48.05;99781.28;6203546;23;20008;-88
2021/06/25 04:06:40;;;;;;;0.40;0.30;;;;;;;29.97;47.47;99788.53;6228208;23;20040;-88
2021/06/25 04:09:06;;;;;;;0.60;0.45;;;;;;;30.05;47.15;99795.50;6233993;23;20074;-88
2021/06/25 04:11:33;;;;;;;0.32;0.30;;;;;;;30.13;48.12;99785.75;6229436;23;20496;-85
2021/06/25 04:13:59;;;;;;;0.43;0.40;;;;;;;30.48;45.94;99788.59;6227779;23;20123;-86
2021/06/25 04:16:26;;;;;;;0.68;0.50;;;;;;;30.75;45.94;99781.91;6231468;23;20023;-85
2021/06/25 04:18:52;;;;;;;0.52;0.50;;;;;;;30.92;45.08;99790.81;6229775;23;20044;-86
2021/06/25 04:21:21;;;;;;;0.40;0.40;;;;;;;31.15;45.24;99792.16;6231406;23;20134;-86
2021/06/25 04:23:48;;;;;;;0.80;0.65;;;;;;;31.39;44.29;99791.56;6202708;23;20118;-87
2021/06/25 04:26:14;;;;;;;0.50;0.40;;;;;;;31.57;43.36;99784.50;6204907;23;20028;-82
2021/06/25 04:31:24;;;;;;;1.05;0.50;;;;;;;31.87;43.13;99787.16;6236942;23;20004;-85
2021/06/25 04:33:50;;;;;;;0.40;0.40;;;;;;;31.96;42.89;99790.19;6237120;23;20025;-86
2021/06/25 04:36:17;;;;;;;0.52;0.50;;;;;;;32.07;42.62;99788.13;6183628;23;20019;-86
2021/06/25 04:38:43;;;;;;;1.50;0.60;;;;;;;32.29;41.73;99794.16;6231338;23;20087;-86
2021/06/25 04:41:10;;;;;;;0.60;0.55;;;;;;;32.50;41.79;99782.81;6183864;23;20016;-87
2021/06/25 04:43:37;;;;;;;0.40;0.40;;;;;;;32.68;41.31;99784.88;6158572;23;20024;-87
2021/06/25 04:46:10;;;;;;;0.55;0.50;;;;;;;32.39;41.44;99782.84;6181459;22;20603;31
2021/06/25 04:48:37;;;;;;;0.40;0.40;;;;;;;32.70;40.07;99787.41;6179215;23;20055;-87
2021/06/25 04:51:04;;;;;;;2.00;0.57;;;;;;;32.93;40.15;99775.38;6150132;23;20104;-86
2021/06/25 04:53:33;;;;;;;0.50;0.50;;;;;;;33.21;40.67;99786.88;6152150;23;20025;-85
2021/06/25 04:56:03;;;;;;;1.30;0.55;;;;;;;33.35;40.21;99779.44;6175336;23;20073;-88
2021/06/25 04:58:29;;;;;;;0.40;0.40;;;;;;;33.40;40.48;99779.34;6205965;22;20984;-85
2021/06/25 05:01:01;;;;;;;0.82;0.50;;;;;;;33.54;40.40;99785.09;6220245;22;20021;-87
2021/06/25 05:03:28;;;;;;;0.60;0.50;;;;;;;33.71;40.45;99779.81;6197819;23;20024;-85
2021/06/25 05:05:57;;;;;;;0.52;0.50;;;;;;;33.78;40.49;99769.03;6201985;23;20017;-86
2021/06/25 05:08:23;;;;;;;1.33;0.60;;;;;;;33.98;40.48;99781.13;6224880;23;20040;-85
2021/06/25 05:10:51;;;;;;;0.50;0.50;;;;;;;34.18;39.71;99783.63;6199886;23;20100;-84
2021/06/25 05:13:17;;;;;;;0.60;0.60;;;;;;;34.21;39.37;99783.03;6178376;23;20359;-86
2021/06/25 05:15:44;;;;;;;1.23;0.50;;;;;;;34.40;39.42;99785.81;6147354;23;20031;-87
2021/06/25 05:18:12;;;;;;;0.75;0.60;;;;;;;34.64;39.03;99779.28;6198149;23;20083;-83
2021/06/25 05:20:44;;;;;;;0.63;0.60;;;;;;;34.76;38.19;99766.38;6222439;23;20028;-87
2021/06/25 05:23:12;;;;;;;1.27;0.57;;;;;;;34.79;37.54;99771.38;6181842;23;20028;-84
2021/06/25 05:25:39;;;;;;;0.77;0.77;;;;;;;34.87;37.20;99771.81;6199225;23;20020;-86
2021/06/25 05:28:06;;;;;;;0.57;0.57;;;;;;;35.05;37.68;99767.28;6206220;23;20036;-86
2021/06/25 05:30:36;;;;;;;0.77;0.77;;;;;;;35.22;37.50;99770.31;6203988;23;20008;-85
2021/06/25 05:33:04;;;;;;;0.77;0.68;;;;;;;35.37;36.25;99771.97;6177716;23;20104;-84
2021/06/25 05:35:34;;;;;;;0.60;0.60;;;;;;;35.40;35.47;99779.78;6177462;23;20113;-86
2021/06/25 05:38:08;;;;;;;0.95;0.70;;;;;;;35.62;36.21;99782.72;6204890;22;20025;31
2021/06/25 05:40:38;;;;;;;1.33;0.77;;;;;;;35.67;36.41;99781.75;6166241;23;20072;-88
2021/06/25 05:43:06;;;;;;;0.70;0.70;;;;;;;35.78;36.70;99790.81;6174728;23;20048;-84
2021/06/25 05:45:35;;;;;;;1.95;0.70;;;;;;;36.07;36.48;99787.63;6175873;23;20132;-83
2021/06/25 05:48:06;;;;;;;0.77;0.75;;;;;;;35.74;36.75;99785.81;6154425;23;20021;-83
2021/06/25 05:50:33;;;;;;;0.90;0.70;;;;;;;36.07;35.88;99787.63;6169982;23;20074;-85
2021/06/25 05:53:06;;;;;;;0.75;0.73;;;;;;;35.60;35.63;99784.16;6158439;23;20036;-87
2021/06/25 05:55:42;;;;;;;0.75;0.75;;;;;;;35.71;36.61;99786.44;6156776;23;20012;-87
2021/06/25 05:58:11;;;;;;;0.80;0.80;;;;;;;36.10;35.13;99775.75;6227669;22;20033;-86
2021/06/25 06:00:42;;;;;;;0.70;0.70;;;;;;;36.56;35.01;99778.25;6202459;23;20020;-85
2021/06/25 06:03:10;;;;;;;0.77;0.63;;;;;;;36.86;34.17;99779.47;6202445;23;20032;-87
2021/06/25 06:05:39;;;;;;;0.70;0.60;;;;;;;36.15;35.63;99784.88;6179252;23;20860;-86
2021/06/25 06:08:06;;;;;;;1.30;0.85;;;;;;;36.70;34.68;99798.75;6178021;23;20047;-88
2021/06/25 06:13:56;;;;;;;0.80;0.80;;;;;;;38.09;32.90;99802.13;6226439;22;20020;-85
2021/06/25 06:16:25;;;;;;;0.80;0.80;;;;;;;36.99;34.80;99808.72;6232638;23;20043;-87
2021/06/25 06:18:51;;;;;;;0.65;0.65;;;;;;;37.10;34.98;99798.00;6229783;23;20075;-87
2021/06/25 06:21:21;;;;;;;0.80;0.80;;;;;;;36.21;36.19;99811.78;6230440;22;20572;-87
2021/06/25 06:32:27;;;;;;;0.80;0.80;;;;;;;35.95;37.00;99824.75;6176865;22;21175;31
2021/06/25 06:41:04;;;;;;;0.77;0.77;;;;;;;37.49;34.33;99816.94;6215344;22;20024;-86
2021/06/25 06:43:38;;;;;;;0.70;0.70;;;;;;;36.91;34.65;99829.22;6208950;23;20055;-86
2021/06/25 06:46:08;;;;;;;1.00;0.90;;;;;;;37.05;34.71;99835.63;6211427;23;20020;-87
2021/06/25 06:48:37;;;;;;;0.70;0.70;;;;;;;36.54;34.51;99825.66;6195178;22;20020;-85
2021/06/25 06:52:05;;;;;;;0.90;0.90;;;;;;;36.84;33.26;99834.47;5082035;28;20439;-84
2021/06/25 06:54:37;;;;;;;0.60;0.60;;;;;;;37.85;31.63;99838.44;5051178;28;20058;-85
2021/06/25 06:57:08;;;;;;;0.70;0.70;;;;;;;38.71;31.33;99837.69;5075060;28;20041;-84
2021/06/25 06:59:36;;;;;;;0.80;0.80;;;;;;;38.16;32.43;99840.34;5071352;28;20045;-84
2021/06/25 07:02:06;;;;;;;0.80;0.80;;;;;;;38.18;32.78;99843.69;5072171;28;20065;-82
2021/06/25 07:04:36;;;;;;;0.85;0.85;;;;;;;39.01;31.34;99841.47;5071349;28;20029;-83
2021/06/25 07:07:06;;;;;;;1.08;1.05;;;;;;;38.48;32.57;99836.22;5058590;28;20104;-84
2021/06/25 07:09:34;;;;;;;0.90;0.90;;;;;;;37.58;32.64;99831.88;5059102;28;20033;-85
2021/06/25 07:12:04;;;;;;;1.10;1.00;;;;;;;39.02;31.63;99837.50;5067081;28;20075;-86
2021/06/25 07:14:32;;;;;;;0.93;0.93;;;;;;;39.81;30.44;99832.34;5038939;28;20306;-86
2021/06/25 07:17:01;;;;;;;0.90;0.90;;;;;;;37.94;32.12;99825.19;5063009;28;20055;-85
2021/06/25 07:19:28;;;;;;;1.00;1.00;;;;;;;39.33;30.43;99827.91;5040134;28;20040;-84
2021/06/25 07:21:55;;;;;;;0.88;0.88;;;;;;;39.01;31.01;99832.97;5061310;28;20122;-84
2021/06/25 07:24:23;;;;;;;0.80;0.80;;;;;;;39.75;29.87;99839.41;5049982;28;20172;-82
2021/06/25 07:26:50;;;;;;;0.90;0.90;;;;;;;40.36;29.20;99831.31;5072174;23;20460;-84
2021/06/25 07:29:17;;;;;;;1.00;1.00;;;;;;;39.46;30.40;99824.03;5051584;28;20034;-83
2021/06/25 07:31:44;;;;;;;1.10;1.10;;;;;;;40.55;29.39;99832.81;5040086;28;20085;-80
2021/06/25 07:34:12;;;;;;;1.20;1.10;;;;;;;40.32;29.53;99821.00;5024533;28;20034;-84
2021/06/25 07:36:40;;;;;;;1.17;1.08;;;;;;;40.55;28.83;99821.47;5034063;28;20034;-83
2021/06/25 07:39:08;;;;;;;0.80;0.80;;;;;;;39.90;29.32;99810.50;5021665;28;20053;-84
2021/06/25 07:41:37;;;;;;;1.05;1.05;;;;;;;40.13;29.55;99816.66;5011105;28;20038;-84
2021/06/25 07:44:09;;;;;;;1.20;1.00;;;;;;;41.23;28.44;99818.28;5026469;28;20061;-85
2021/06/25 07:46:36;;;;;;;0.90;0.90;;;;;;;40.45;29.42;99817.91;5035670;28;20069;-83
2021/06/25 07:49:03;;;;;;;0.90;0.90;;;;;;;40.92;28.24;99814.78;5020989;28;20026;-84
2021/06/25 07:51:29;;;;;;;1.00;1.00;;;;;;;41.09;27.79;99807.25;5022387;28;20042;-84
2021/06/25 07:53:57;;;;;;;0.90;0.90;;;;;;;41.17;27.98;99812.81;5016376;28;20069;-85
2021/06/25 07:56:23;;;;;;;1.00;1.00;;;;;;;40.07;29.20;99797.34;5038822;28;20129;-83
2021/06/25 07:58:50;;;;;;;1.00;1.00;;;;;;;39.96;29.37;99800.59;5029979;28;20160;-84
2021/06/25 08:01:16;;;;;;;1.10;1.10;;;;;;;39.76;30.24;99792.94;5030410;28;20046;-85
2021/06/25 08:03:43;;;;;;;1.08;1.08;;;;;;;40.73;28.57;99798.28;5017832;28;20112;-82
2021/06/25 08:06:12;;;;;;;1.13;1.13;;;;;;;40.87;28.53;99800.81;5008865;28;20037;-85
2021/06/25 08:08:39;;;;;;;1.15;1.15;;;;;;;40.16;28.77;99798.16;5011945;28;20041;-86
2021/06/25 08:11:05;;;;;;;1.38;1.27;;;;;;;41.09;28.08;99793.09;4993683;28;20044;-84
2021/06/25 08:13:31;;;;;;;0.95;0.50;;;;;;;41.25;27.72;99794.06;5025345;28;20057;-84
2021/06/25 08:15:58;;;;;;;1.00;1.00;;;;;;;40.12;29.26;99798.00;5039221;28;20046;-83
2021/06/25 08:18:25;;;;;;;0.90;0.90;;;;;;;39.55;29.59;99787.19;5022057;28;20038;-83
2021/06/25 08:20:52;;;;;;;1.30;1.30;;;;;;;40.03;29.90;99783.88;5005786;28;20049;-83
2021/06/25 08:23:21;;;;;;;1.60;1.50;;;;;;;39.73;28.01;99779.47;5022626;28;20029;-84
2021/06/25 08:25:49;;;;;;;1.30;1.30;;;;;;;40.80;26.72;99777.88;4999777;28;20125;-84
2021/06/25 08:28:16;;;;;;;0.60;0.30;;;;;;;40.04;27.68;99796.03;5023732;28;20116;-85
2021/06/25 08:30:43;;;;;;;1.13;0.40;;;;;;;39.69;28.84;99798.31;4988680;28;20141;-86
2021/06/25 08:33:09;;;;;;;2.35;0.40;;;;;;;38.57;31.03;99809.59;5030575;28;20053;-83
2021/06/25 08:35:48;;;;;;;2.17;0.40;;;;;;;37.71;31.26;99813.19;5019541;28;20180;-83
2021/06/25 08:38:22;;;;;;;2.67;0.55;;;;;;;36.96;31.99;99812.19;4997971;28;20541;-87
2021/06/25 08:40:50;;;;;;;0.45;0.40;;;;;;;36.31;32.67;99815.47;5016627;28;20122;-85
2021/06/25 08:43:17;;;;;;;0.80;0.30;;;;;;;36.08;33.25;99807.00;5002761;28;20156;-85
2021/06/25 08:45:44;;;;;;;1.52;0.30;;;;;;;35.16;35.10;99808.94;5004921;28;20102;-85
2021/06/25 08:48:11;;;;;;;2.28;0.60;;;;;;;34.87;35.70;99799.91;4983900;28;20049;-85
2021/06/25 08:50:40;;;;;;;0.70;0.30;;;;;;;34.62;36.11;99793.59;5015031;28;20052;-83
2021/06/25 08:53:07;;;;;;;0.60;0.30;;;;;;;34.56;36.15;99814.50;4989510;28;20049;-84
2021/06/25 08:55:43;;;;;;;0.32;0.20;;;;;;;34.02;37.13;99813.06;5036048;28;20049;-84
2021/06/25 08:58:18;;;;;;;0.88;0.30;;;;;;;33.75;37.70;99819.28;5001716;28;20034;-83
2021/06/25 09:00:45;;;;;;;1.55;0.30;;;;;;;33.43;37.52;99817.19;5016368;28;20038;-83
2021/06/25 09:03:19;;;;;;;0.43;0.20;;;;;;;33.04;38.13;99824.59;4991445;28;20101;-83
2021/06/25 09:05:45;;;;;;;5.13;0.90;;;;;;;32.69;39.42;99825.75;5007794;28;20026;-84
2021/06/25 09:08:30;;;;;;;2.05;0.50;;;;;;;32.35;39.29;99829.34;5039048;28;20025;-85
2021/06/25 09:11:16;;;;;;;0.85;0.30;;;;;;;32.40;39.79;99834.09;5007344;28;20046;-87
2021/06/25 09:13:44;;;;;;;0.88;0.35;;;;;;;32.25;40.12;99826.66;5032600;28;20053;-85
2021/06/25 09:16:27;;;;;;;1.65;0.40;;;;;;;31.91;40.72;99821.78;5000919;28;20033;-85
2021/06/25 09:19:07;;;;;;;0.90;0.30;;;;;;;32.16;40.80;99811.59;5038704;28;20045;-86
2021/06/25 09:21:39;;;;;;;1.75;0.50;;;;;;;32.09;40.53;99805.47;5034160;28;20046;-83
2021/06/25 09:24:21;;;;;;;0.60;0.45;;;;;;;31.90;40.88;99824.91;5121995;23;20049;-85
2021/06/25 09:26:51;;;;;;;1.92;0.40;;;;;;;31.40;43.82;99822.00;5047533;28;20069;-86
2021/06/25 09:29:23;;;;;;;2.78;0.70;;;;;;;31.23;44.28;99827.06;4995582;28;20065;-84
2021/06/25 09:32:08;;;;;;;1.08;0.50;;;;;;;31.08;44.53;99825.16;5037045;28;20065;-85
2021/06/25 09:34:40;;;;;;;0.90;0.30;;;;;;;30.68;44.82;99826.03;5033327;28;20026;-85
2021/06/25 09:37:10;;;;;;;;;;;;;;;30.70;45.48;99819.03;5031714;28;20102;-84
2021/06/25 09:39:42;;;;;;;0.80;0.40;;;;;;;30.60;45.63;99807.03;5031836;28;19929;-84
2021/06/25 09:42:18;;;;;;;0.88;0.30;;;;;;;30.45;45.53;99805.06;5028212;28;20022;-83
2021/06/25 09:45:05;;;;;;;1.58;0.43;;;;;;;30.33;45.40;99794.19;5026272;28;20103;-83
2021/06/25 09:47:33;;;;;;;0.52;0.30;;;;;;;30.42;45.00;99798.13;5017270;28;20114;-83
2021/06/25 09:50:21;;;;;;;0.75;0.45;;;;;;;30.47;44.81;99805.63;5052223;22;20058;-84
2021/06/25 09:52:53;;;;;;;0.77;0.35;;;;;;;30.42;45.68;99797.25;5018442;28;20083;-86
2021/06/25 09:55:24;;;;;;;0.68;0.40;;;;;;;30.44;45.30;99807.03;5002324;28;20065;-84
2021/06/25 10:03:43;;;;;;;1.40;0.40;;;;;;;30.15;44.16;99798.31;5050079;28;20056;-83
2021/06/25 10:06:14;;;;;;;0.60;0.30;;;;;;;29.99;44.22;99796.63;5062079;28;20037;-84
2021/06/25 10:08:43;;;;;;;0.85;0.45;;;;;;;30.24;44.94;99809.78;5028730;28;20043;-84
2021/06/25 10:11:12;;;;;;;0.88;0.40;;;;;;;30.35;44.48;99811.50;5072857;28;20041;-83
2021/06/25 10:13:41;;;;;;;1.20;0.40;;;;;;;30.36;44.12;99810.38;5050994;28;20037;-84
2021/06/25 10:16:09;;;;;;;0.98;0.30;;;;;;;30.40;43.90;99808.69;5055587;28;20039;-85
2021/06/25 10:18:38;;;;;;;0.90;0.40;;;;;;;30.27;43.93;99809.25;5042205;28;20045;-83
2021/06/25 10:21:08;;;;;;;0.50;0.30;;;;;;;30.36;44.26;99809.53;5054810;28;20029;-83
2021/06/25 10:23:37;;;;;;;1.10;0.35;;;;;;;30.38;43.78;99816.50;5036591;28;20049;-83
2021/06/25 10:26:09;;;;;;;0.68;0.38;;;;;;;30.41;43.89;99815.94;5048796;28;20474;-85
2021/06/25 10:28:38;;;;;;;0.40;0.20;;;;;;;30.40;43.74;99807.88;5054663;28;20317;-85
2021/06/25 10:31:05;;;;;;;0.68;0.40;;;;;;;30.34;45.01;99801.44;5026133;28;20055;-83
2021/06/25 10:33:40;;;;;;;0.60;0.30;;;;;;;30.33;43.87;99807.31;5046812;28;20181;-82
2021/06/25 10:36:17;;;;;;;0.43;0.30;;;;;;;30.19;44.77;99796.69;5044951;28;20052;-86
2021/06/25 10:38:46;;;;;;;0.40;0.30;;;;;;;30.32;44.39;99805.63;5061411;28;20447;-86
2021/06/25 10:41:14;;;;;;;0.80;0.30;;;;;;;30.38;43.63;99804.50;5040331;28;20086;-82
2021/06/25 10:43:46;;;;;;;1.00;0.60;;;;;;;30.51;44.11;99799.22;5041648;28;20042;-84
2021/06/25 10:46:34;;;;;;;0.97;0.50;;;;;;;30.67;43.82;99791.66;5065327;28;20106;-84
2021/06/25 10:49:09;;;;;;;0.85;0.47;;;;;;;30.55;43.08;99793.91;5058562;28;20340;-84
2021/06/25 10:51:41;;;;;;;1.35;0.30;;;;;;;30.67;43.06;99791.66;5038456;28;20100;-85
2021/06/25 10:54:13;;;;;;;0.90;0.40;;;;;;;30.84;42.47;99797.00;5193575;23;20057;-82
2021/06/25 10:56:47;;;;;;;0.30;0.30;;;;;;;30.98;42.12;99786.91;5059266;28;20040;-85
2021/06/25 10:59:28;;;;;;;1.02;0.30;;;;;;;31.09;42.74;99782.13;5038952;28;20033;-84
2021/06/25 11:02:08;;;;;;;1.30;0.50;;;;;;;31.30;42.71;99779.25;5016957;28;20061;-85
2021/06/25 11:04:48;;;;;;;1.05;0.50;;;;;;;31.57;42.65;99776.13;5055706;28;20052;-85
2021/06/25 11:07:40;;;;;;;0.40;0.40;;;;;;;31.82;41.55;99778.78;5037841;28;20046;-85
2021/06/25 11:10:08;;;;;;;0.60;0.40;;;;;;;32.13;40.78;99778.59;5053187;28;20061;-85
2021/06/25 11:12:40;;;;;;;0.75;0.40;;;;;;;32.46;40.70;99770.53;5046312;28;20048;-83
2021/06/25 11:15:09;;;;;;;0.60;0.60;;;;;;;32.63;39.50;99756.94;5044437;28;20049;-83
2021/06/25 11:17:54;;;;;;;1.25;0.70;;;;;;;33.15;39.00;99760.06;5049163;28;20037;-83
2021/06/25 11:20:29;;;;;;;0.70;0.70;;;;;;;33.78;38.14;99771.84;5058799;28;20537;-82
2021/06/25 11:22:57;;;;;;;1.20;0.90;;;;;;;34.37;37.44;99763.13;5060214;28;20113;-83
2021/06/25 11:25:34;;;;;;;1.15;1.00;;;;;;;34.83;36.32;99751.09;5041857;28;20129;-83
2021/06/25 11:28:42;;;;;;;1.10;1.10;;;;;;;35.58;35.38;99752.69;5046151;28;20048;-84
2021/06/25 11:31:17;;;;;;;1.42;1.08;;;;;;;36.32;33.86;99755.22;4997729;28;20070;-82
2021/06/25 11:36:48;;;;;;;1.98;1.05;;;;;;;37.38;32.14;99761.94;5031876;28;20064;-84
2021/06/25 11:39:20;;;;;;;1.25;1.20;;;;;;;37.95;31.50;99761.91;5045417;28;20045;-82
2021/06/25 11:41:52;;;;;;;1.10;1.00;;;;;;;37.95;31.35;99756.28;5051105;28;20049;-84
2021/06/25 11:44:40;;;;;;;1.60;1.30;;;;;;;37.81;31.33;99759.25;5046066;28;20033;-82
2021/06/25 11:47:27;;;;;;;1.30;1.20;;;;;;;38.09;29.74;99756.94;5067696;28;20041;-82
2021/06/25 11:50:11;;;;;;;1.25;1.00;;;;;;;37.80;28.93;99753.91;5051644;28;20057;-82
2021/06/25 11:52:41;;;;;;;0.90;0.90;;;;;;;37.91;28.68;99748.81;5045815;28;20041;-83
2021/06/25 11:55:12;;;;;;;0.80;0.80;;;;;;;38.16;28.47;99750.81;5038686;28;20320;-82
2021/06/25 11:57:42;;;;;;;0.80;0.80;;;;;;;38.41;28.94;99760.44;5057234;28;20064;-83
2021/06/25 12:00:16;;;;;;;0.77;0.77;;;;;;;38.59;29.07;99752.78;5071052;28;20072;-81
2021/06/25 12:02:55;;;;;;;0.80;0.77;;;;;;;38.55;28.57;99749.78;5032781;28;20117;-84
2021/06/25 12:05:25;;;;;;;1.52;0.80;;;;;;;36.85;31.40;99740.31;5062312;28;20061;-81
2021/06/25 12:08:05;;;;;;;0.55;0.55;;;;;;;37.65;30.10;99741.94;5050418;28;20463;-85
2021/06/25 12:10:31;;;;;;;0.75;0.70;;;;;;;36.57;31.89;99740.50;5046820;28;20045;-82
2021/06/25 12:13:00;;;;;;;0.73;0.70;;;;;;;36.86;31.45;99730.69;5050081;28;20046;-84
2021/06/25 12:15:28;;;;;;;9.40;2.63;;;;;;;37.06;30.60;99723.69;5037809;28;20063;-84